sensor_id;sensor_type;location;lat;lon;timestamp;P1;durP1;ratioP1;P2;durP2;ratioP2
73266;SDS011;61495;53.400;7.608;2022-10-15T00:00:53;22.60;;;11.85;;
73266;SDS011;61495;53.400;7.608;2022-10-15T00:03:30;23.60;;;11.98;;
73266;SDS011;61495;53.400;7.608;2022-10-15T00:05:55;19.58;;;10.73;;
73266;SDS011;61495;53.400;7.608;2022-10-15T00:08:21;24.40;;;12.75;;
73266;SDS011;61495;53.400;7.608;2022-10-15T00:11:07;22.20;;;12.02;;
73266;SDS011;61495;53.400;7.608;2022-10-15T00:13:38;22.50;;;12.00;;
73266;SDS011;61495;53.400;7.608;2022-10-15T00:16:10;21.85;;;10.75;;
73266;SDS011;61495;53.400;7.608;2022-10-15T00:18:38;21.25;;;11.05;;
73266;SDS011;61495;53.400;7.608;2022-10-15T00:21:05;22.02;;;11.48;;
73266;SDS011;61495;53.400;7.608;2022-10-15T00:23:32;25.00;;;13.02;;
73266;SDS011;61495;53.400;7.608;2022-10-15T00:26:02;20.00;;;10.45;;
73266;SDS011;61495;53.400;7.608;2022-10-15T00:28:38;23.10;;;10.73;;
73266;SDS011;61495;53.400;7.608;2022-10-15T00:31:05;21.15;;;11.73;;
73266;SDS011;61495;53.400;7.608;2022-10-15T00:33:33;22.92;;;12.60;;
73266;SDS011;61495;53.400;7.608;2022-10-15T00:36:02;25.10;;;12.23;;
73266;SDS011;61495;53.400;7.608;2022-10-15T00:38:48;23.23;;;12.02;;
73266;SDS011;61495;53.400;7.608;2022-10-15T00:41:16;21.85;;;10.23;;
73266;SDS011;61495;53.400;7.608;2022-10-15T00:43:43;26.50;;;12.35;;
73266;SDS011;61495;53.400;7.608;2022-10-15T00:46:14;24.27;;;13.38;;
73266;SDS011;61495;53.400;7.608;2022-10-15T00:48:45;22.77;;;11.73;;
73266;SDS011;61495;53.400;7.608;2022-10-15T00:51:15;22.52;;;12.23;;
73266;SDS011;61495;53.400;7.608;2022-10-15T00:53:42;23.65;;;11.43;;
73266;SDS011;61495;53.400;7.608;2022-10-15T00:56:08;22.23;;;12.18;;
73266;SDS011;61495;53.400;7.608;2022-10-15T00:58:34;27.05;;;12.77;;
73266;SDS011;61495;53.400;7.608;2022-10-15T01:01:00;21.77;;;11.02;;
73266;SDS011;61495;53.400;7.608;2022-10-15T01:03:26;26.05;;;12.93;;
73266;SDS011;61495;53.400;7.608;2022-10-15T01:05:52;27.20;;;13.00;;
73266;SDS011;61495;53.400;7.608;2022-10-15T01:08:19;25.90;;;11.95;;
73266;SDS011;61495;53.400;7.608;2022-10-15T01:16:18;32.95;;;14.57;;
73266;SDS011;61495;53.400;7.608;2022-10-15T01:19:06;31.80;;;15.57;;
73266;SDS011;61495;53.400;7.608;2022-10-15T01:24:42;30.13;;;15.02;;
73266;SDS011;61495;53.400;7.608;2022-10-15T01:27:28;29.00;;;14.02;;
73266;SDS011;61495;53.400;7.608;2022-10-15T01:30:26;27.88;;;14.27;;
73266;SDS011;61495;53.400;7.608;2022-10-15T01:33:07;28.85;;;14.02;;
73266;SDS011;61495;53.400;7.608;2022-10-15T01:35:50;30.63;;;16.15;;
73266;SDS011;61495;53.400;7.608;2022-10-15T01:43:50;35.80;;;17.60;;
73266;SDS011;61495;53.400;7.608;2022-10-15T01:46:41;28.80;;;15.20;;
73266;SDS011;61495;53.400;7.608;2022-10-15T01:49:14;31.92;;;15.23;;
73266;SDS011;61495;53.400;7.608;2022-10-15T01:51:45;31.73;;;16.58;;
73266;SDS011;61495;53.400;7.608;2022-10-15T01:54:14;31.67;;;16.25;;
73266;SDS011;61495;53.400;7.608;2022-10-15T01:56:43;31.23;;;15.38;;
73266;SDS011;61495;53.400;7.608;2022-10-15T01:59:14;30.60;;;14.32;;
73266;SDS011;61495;53.400;7.608;2022-10-15T02:01:43;33.40;;;17.05;;
73266;SDS011;61495;53.400;7.608;2022-10-15T02:04:20;35.67;;;19.23;;
73266;SDS011;61495;53.400;7.608;2022-10-15T02:07:01;35.25;;;17.00;;
73266;SDS011;61495;53.400;7.608;2022-10-15T02:17:57;29.90;;;15.88;;
73266;SDS011;61495;53.400;7.608;2022-10-15T02:21:11;34.80;;;16.58;;
73266;SDS011;61495;53.400;7.608;2022-10-15T02:23:18;33.47;;;18.55;;
73266;SDS011;61495;53.400;7.608;2022-10-15T02:25:53;29.60;;;15.77;;
73266;SDS011;61495;53.400;7.608;2022-10-15T02:28:21;34.20;;;18.70;;
73266;SDS011;61495;53.400;7.608;2022-10-15T02:30:51;29.55;;;14.65;;
73266;SDS011;61495;53.400;7.608;2022-10-15T02:33:20;37.13;;;18.77;;
73266;SDS011;61495;53.400;7.608;2022-10-15T02:35:49;30.85;;;16.83;;
73266;SDS011;61495;53.400;7.608;2022-10-15T02:38:16;37.88;;;20.23;;
73266;SDS011;61495;53.400;7.608;2022-10-15T02:40:57;38.53;;;17.35;;
73266;SDS011;61495;53.400;7.608;2022-10-15T02:43:24;33.17;;;16.27;;
73266;SDS011;61495;53.400;7.608;2022-10-15T02:45:50;29.05;;;14.95;;
73266;SDS011;61495;53.400;7.608;2022-10-15T02:48:16;28.63;;;15.02;;
73266;SDS011;61495;53.400;7.608;2022-10-15T02:50:42;35.22;;;18.02;;
73266;SDS011;61495;53.400;7.608;2022-10-15T02:53:07;35.88;;;17.42;;
73266;SDS011;61495;53.400;7.608;2022-10-15T02:55:33;34.97;;;17.48;;
73266;SDS011;61495;53.400;7.608;2022-10-15T02:57:59;39.35;;;17.40;;
73266;SDS011;61495;53.400;7.608;2022-10-15T03:00:25;31.30;;;17.77;;
73266;SDS011;61495;53.400;7.608;2022-10-15T03:02:51;36.40;;;17.30;;
73266;SDS011;61495;53.400;7.608;2022-10-15T03:05:17;30.35;;;15.55;;
73266;SDS011;61495;53.400;7.608;2022-10-15T03:07:42;33.00;;;17.83;;
73266;SDS011;61495;53.400;7.608;2022-10-15T03:10:08;36.60;;;20.35;;
73266;SDS011;61495;53.400;7.608;2022-10-15T03:12:34;36.20;;;17.30;;
73266;SDS011;61495;53.400;7.608;2022-10-15T03:15:00;38.50;;;18.85;;
73266;SDS011;61495;53.400;7.608;2022-10-15T03:17:26;37.47;;;17.70;;
73266;SDS011;61495;53.400;7.608;2022-10-15T03:19:52;35.08;;;16.55;;
73266;SDS011;61495;53.400;7.608;2022-10-15T03:22:17;37.65;;;19.45;;
73266;SDS011;61495;53.400;7.608;2022-10-15T03:24:43;35.60;;;17.55;;
73266;SDS011;61495;53.400;7.608;2022-10-15T03:27:09;32.63;;;16.48;;
73266;SDS011;61495;53.400;7.608;2022-10-15T03:29:34;38.22;;;18.23;;
73266;SDS011;61495;53.400;7.608;2022-10-15T03:32:00;36.53;;;18.60;;
73266;SDS011;61495;53.400;7.608;2022-10-15T03:34:26;38.97;;;17.83;;
73266;SDS011;61495;53.400;7.608;2022-10-15T03:36:52;36.10;;;19.52;;
73266;SDS011;61495;53.400;7.608;2022-10-15T03:39:18;36.53;;;18.83;;
73266;SDS011;61495;53.400;7.608;2022-10-15T03:41:43;35.30;;;17.58;;
73266;SDS011;61495;53.400;7.608;2022-10-15T03:44:09;35.00;;;17.92;;
73266;SDS011;61495;53.400;7.608;2022-10-15T03:46:35;39.95;;;20.25;;
73266;SDS011;61495;53.400;7.608;2022-10-15T03:49:01;32.78;;;18.80;;
73266;SDS011;61495;53.400;7.608;2022-10-15T03:51:27;37.40;;;18.17;;
73266;SDS011;61495;53.400;7.608;2022-10-15T03:53:53;38.83;;;19.08;;
73266;SDS011;61495;53.400;7.608;2022-10-15T03:56:19;38.00;;;21.23;;
73266;SDS011;61495;53.400;7.608;2022-10-15T03:58:44;37.88;;;16.88;;
73266;SDS011;61495;53.400;7.608;2022-10-15T04:01:11;37.17;;;18.40;;
73266;SDS011;61495;53.400;7.608;2022-10-15T04:03:39;36.20;;;19.17;;
73266;SDS011;61495;53.400;7.608;2022-10-15T04:06:05;37.67;;;18.02;;
73266;SDS011;61495;53.400;7.608;2022-10-15T04:08:31;36.83;;;18.08;;
73266;SDS011;61495;53.400;7.608;2022-10-15T04:11:00;44.25;;;21.75;;
73266;SDS011;61495;53.400;7.608;2022-10-15T04:13:26;44.33;;;21.25;;
73266;SDS011;61495;53.400;7.608;2022-10-15T04:15:53;43.55;;;20.00;;
73266;SDS011;61495;53.400;7.608;2022-10-15T04:18:20;42.22;;;20.90;;
73266;SDS011;61495;53.400;7.608;2022-10-15T04:20:46;43.80;;;19.13;;
73266;SDS011;61495;53.400;7.608;2022-10-15T04:23:13;42.78;;;20.55;;
73266;SDS011;61495;53.400;7.608;2022-10-15T04:25:40;42.28;;;19.65;;
73266;SDS011;61495;53.400;7.608;2022-10-15T04:28:07;42.78;;;20.70;;
73266;SDS011;61495;53.400;7.608;2022-10-15T04:30:33;48.05;;;23.45;;
73266;SDS011;61495;53.400;7.608;2022-10-15T04:32:59;44.30;;;21.42;;
73266;SDS011;61495;53.400;7.608;2022-10-15T04:35:31;45.80;;;23.05;;
73266;SDS011;61495;53.400;7.608;2022-10-15T04:37:59;49.28;;;22.73;;
73266;SDS011;61495;53.400;7.608;2022-10-15T04:40:31;47.17;;;22.77;;
73266;SDS011;61495;53.400;7.608;2022-10-15T04:45:22;41.72;;;21.88;;
73266;SDS011;61495;53.400;7.608;2022-10-15T04:47:48;41.10;;;19.05;;
73266;SDS011;61495;53.400;7.608;2022-10-15T04:50:14;43.83;;;20.42;;
73266;SDS011;61495;53.400;7.608;2022-10-15T04:52:39;47.05;;;20.23;;
73266;SDS011;61495;53.400;7.608;2022-10-15T04:55:05;42.63;;;20.75;;
73266;SDS011;61495;53.400;7.608;2022-10-15T04:57:31;46.08;;;19.88;;
73266;SDS011;61495;53.400;7.608;2022-10-15T04:59:57;45.55;;;19.95;;
73266;SDS011;61495;53.400;7.608;2022-10-15T05:02:23;41.53;;;18.67;;
73266;SDS011;61495;53.400;7.608;2022-10-15T05:04:49;43.55;;;19.50;;
73266;SDS011;61495;53.400;7.608;2022-10-15T05:07:14;42.08;;;19.90;;
73266;SDS011;61495;53.400;7.608;2022-10-15T05:09:40;44.25;;;19.33;;
73266;SDS011;61495;53.400;7.608;2022-10-15T05:12:09;44.28;;;19.50;;
73266;SDS011;61495;53.400;7.608;2022-10-15T05:14:35;46.92;;;21.05;;
73266;SDS011;61495;53.400;7.608;2022-10-15T05:17:00;42.90;;;19.25;;
73266;SDS011;61495;53.400;7.608;2022-10-15T05:19:27;44.35;;;19.80;;
73266;SDS011;61495;53.400;7.608;2022-10-15T05:21:53;41.40;;;19.50;;
73266;SDS011;61495;53.400;7.608;2022-10-15T05:24:18;42.55;;;19.90;;
73266;SDS011;61495;53.400;7.608;2022-10-15T05:26:44;47.03;;;22.13;;
73266;SDS011;61495;53.400;7.608;2022-10-15T05:29:10;45.28;;;20.83;;
73266;SDS011;61495;53.400;7.608;2022-10-15T05:31:36;47.83;;;20.50;;
73266;SDS011;61495;53.400;7.608;2022-10-15T05:34:05;45.15;;;20.27;;
73266;SDS011;61495;53.400;7.608;2022-10-15T05:36:32;45.33;;;21.35;;
73266;SDS011;61495;53.400;7.608;2022-10-15T05:38:58;40.05;;;17.88;;
73266;SDS011;61495;53.400;7.608;2022-10-15T05:41:26;39.92;;;17.77;;
73266;SDS011;61495;53.400;7.608;2022-10-15T05:43:53;40.63;;;20.73;;
73266;SDS011;61495;53.400;7.608;2022-10-15T05:46:20;42.00;;;17.30;;
73266;SDS011;61495;53.400;7.608;2022-10-15T05:48:50;43.25;;;20.23;;
73266;SDS011;61495;53.400;7.608;2022-10-15T05:51:17;37.47;;;18.45;;
73266;SDS011;61495;53.400;7.608;2022-10-15T05:53:43;43.05;;;20.08;;
73266;SDS011;61495;53.400;7.608;2022-10-15T05:56:10;44.03;;;20.10;;
73266;SDS011;61495;53.400;7.608;2022-10-15T05:58:37;42.38;;;19.58;;
73266;SDS011;61495;53.400;7.608;2022-10-15T06:01:04;45.03;;;19.70;;
73266;SDS011;61495;53.400;7.608;2022-10-15T06:03:32;41.13;;;19.35;;
73266;SDS011;61495;53.400;7.608;2022-10-15T06:05:58;41.80;;;18.17;;
73266;SDS011;61495;53.400;7.608;2022-10-15T06:08:23;42.40;;;19.30;;
73266;SDS011;61495;53.400;7.608;2022-10-15T06:11:00;42.10;;;19.27;;
73266;SDS011;61495;53.400;7.608;2022-10-15T06:13:27;44.30;;;19.85;;
73266;SDS011;61495;53.400;7.608;2022-10-15T06:15:53;39.65;;;17.77;;
73266;SDS011;61495;53.400;7.608;2022-10-15T06:18:19;41.72;;;17.63;;
73266;SDS011;61495;53.400;7.608;2022-10-15T06:20:49;43.05;;;18.15;;
73266;SDS011;61495;53.400;7.608;2022-10-15T06:23:16;47.47;;;20.20;;
73266;SDS011;61495;53.400;7.608;2022-10-15T06:25:42;41.13;;;18.77;;
73266;SDS011;61495;53.400;7.608;2022-10-15T06:28:08;40.33;;;19.65;;
73266;SDS011;61495;53.400;7.608;2022-10-15T06:30:34;41.60;;;20.13;;
73266;SDS011;61495;53.400;7.608;2022-10-15T06:33:03;41.92;;;20.85;;
73266;SDS011;61495;53.400;7.608;2022-10-15T06:35:29;45.97;;;21.38;;
73266;SDS011;61495;53.400;7.608;2022-10-15T06:37:58;41.25;;;18.83;;
73266;SDS011;61495;53.400;7.608;2022-10-15T06:40:28;43.08;;;21.25;;
73266;SDS011;61495;53.400;7.608;2022-10-15T06:42:54;43.05;;;21.27;;
73266;SDS011;61495;53.400;7.608;2022-10-15T06:45:20;42.90;;;20.00;;
73266;SDS011;61495;53.400;7.608;2022-10-15T06:47:46;41.78;;;18.75;;
73266;SDS011;61495;53.400;7.608;2022-10-15T06:50:12;44.10;;;18.75;;
73266;SDS011;61495;53.400;7.608;2022-10-15T06:52:38;43.72;;;18.98;;
73266;SDS011;61495;53.400;7.608;2022-10-15T06:55:03;42.92;;;17.15;;
73266;SDS011;61495;53.400;7.608;2022-10-15T06:57:30;38.72;;;18.20;;
73266;SDS011;61495;53.400;7.608;2022-10-15T06:59:55;41.05;;;19.67;;
73266;SDS011;61495;53.400;7.608;2022-10-15T07:02:22;43.65;;;18.55;;
73266;SDS011;61495;53.400;7.608;2022-10-15T07:04:48;40.08;;;17.77;;
73266;SDS011;61495;53.400;7.608;2022-10-15T07:07:14;37.17;;;16.65;;
73266;SDS011;61495;53.400;7.608;2022-10-15T07:09:40;40.03;;;16.85;;
73266;SDS011;61495;53.400;7.608;2022-10-15T07:12:09;40.83;;;17.15;;
73266;SDS011;61495;53.400;7.608;2022-10-15T07:14:34;40.20;;;17.85;;
73266;SDS011;61495;53.400;7.608;2022-10-15T07:17:00;39.47;;;19.00;;
73266;SDS011;61495;53.400;7.608;2022-10-15T07:19:26;36.42;;;16.35;;
73266;SDS011;61495;53.400;7.608;2022-10-15T07:21:52;38.08;;;18.90;;
73266;SDS011;61495;53.400;7.608;2022-10-15T07:24:18;38.70;;;16.45;;
73266;SDS011;61495;53.400;7.608;2022-10-15T07:26:45;37.58;;;17.45;;
73266;SDS011;61495;53.400;7.608;2022-10-15T07:29:11;42.17;;;18.33;;
73266;SDS011;61495;53.400;7.608;2022-10-15T07:31:37;41.95;;;17.90;;
73266;SDS011;61495;53.400;7.608;2022-10-15T07:34:03;43.95;;;17.48;;
73266;SDS011;61495;53.400;7.608;2022-10-15T07:36:29;40.20;;;19.25;;
73266;SDS011;61495;53.400;7.608;2022-10-15T07:38:55;43.33;;;19.02;;
73266;SDS011;61495;53.400;7.608;2022-10-15T07:41:24;40.50;;;17.75;;
73266;SDS011;61495;53.400;7.608;2022-10-15T07:43:58;43.45;;;18.52;;
73266;SDS011;61495;53.400;7.608;2022-10-15T07:46:42;39.63;;;18.55;;
73266;SDS011;61495;53.400;7.608;2022-10-15T07:49:08;43.00;;;19.35;;
73266;SDS011;61495;53.400;7.608;2022-10-15T07:51:35;47.70;;;20.45;;
73266;SDS011;61495;53.400;7.608;2022-10-15T07:54:01;41.40;;;19.23;;
73266;SDS011;61495;53.400;7.608;2022-10-15T07:56:26;44.17;;;18.20;;
73266;SDS011;61495;53.400;7.608;2022-10-15T07:58:52;44.80;;;18.58;;
73266;SDS011;61495;53.400;7.608;2022-10-15T08:01:18;48.50;;;20.42;;
73266;SDS011;61495;53.400;7.608;2022-10-15T08:03:45;47.33;;;21.45;;
73266;SDS011;61495;53.400;7.608;2022-10-15T08:06:11;48.88;;;19.13;;
73266;SDS011;61495;53.400;7.608;2022-10-15T08:08:37;46.20;;;20.20;;
73266;SDS011;61495;53.400;7.608;2022-10-15T08:11:04;44.65;;;18.17;;
73266;SDS011;61495;53.400;7.608;2022-10-15T08:13:31;41.85;;;18.35;;
73266;SDS011;61495;53.400;7.608;2022-10-15T08:15:57;41.80;;;18.35;;
73266;SDS011;61495;53.400;7.608;2022-10-15T08:18:22;42.80;;;17.70;;
73266;SDS011;61495;53.400;7.608;2022-10-15T08:20:48;40.88;;;18.90;;
73266;SDS011;61495;53.400;7.608;2022-10-15T08:23:14;45.70;;;18.20;;
73266;SDS011;61495;53.400;7.608;2022-10-15T08:25:40;46.20;;;19.40;;
73266;SDS011;61495;53.400;7.608;2022-10-15T08:28:07;46.10;;;20.20;;
73266;SDS011;61495;53.400;7.608;2022-10-15T08:30:36;46.42;;;21.45;;
73266;SDS011;61495;53.400;7.608;2022-10-15T08:33:02;39.80;;;18.70;;
73266;SDS011;61495;53.400;7.608;2022-10-15T08:35:28;44.05;;;18.98;;
73266;SDS011;61495;53.400;7.608;2022-10-15T08:37:59;44.95;;;19.90;;
73266;SDS011;61495;53.400;7.608;2022-10-15T08:40:25;45.55;;;19.13;;
73266;SDS011;61495;53.400;7.608;2022-10-15T08:42:52;44.40;;;20.15;;
73266;SDS011;61495;53.400;7.608;2022-10-15T08:45:21;47.47;;;20.55;;
73266;SDS011;61495;53.400;7.608;2022-10-15T08:47:54;47.22;;;20.33;;
73266;SDS011;61495;53.400;7.608;2022-10-15T08:50:35;42.45;;;21.05;;
73266;SDS011;61495;53.400;7.608;2022-10-15T08:53:09;42.67;;;19.63;;
73266;SDS011;61495;53.400;7.608;2022-10-15T08:55:38;46.08;;;19.25;;
73266;SDS011;61495;53.400;7.608;2022-10-15T08:58:24;43.50;;;20.40;;
73266;SDS011;61495;53.400;7.608;2022-10-15T09:01:03;41.58;;;18.63;;
73266;SDS011;61495;53.400;7.608;2022-10-15T09:06:18;39.35;;;17.73;;
73266;SDS011;61495;53.400;7.608;2022-10-15T09:08:55;42.05;;;19.20;;
73266;SDS011;61495;53.400;7.608;2022-10-15T09:11:47;43.33;;;20.58;;
73266;SDS011;61495;53.400;7.608;2022-10-15T09:14:24;45.08;;;18.85;;
73266;SDS011;61495;53.400;7.608;2022-10-15T09:16:58;40.45;;;20.60;;
73266;SDS011;61495;53.400;7.608;2022-10-15T09:19:30;39.60;;;17.95;;
73266;SDS011;61495;53.400;7.608;2022-10-15T09:21:59;39.03;;;17.63;;
73266;SDS011;61495;53.400;7.608;2022-10-15T09:24:27;43.50;;;19.15;;
73266;SDS011;61495;53.400;7.608;2022-10-15T09:29:57;35.70;;;16.30;;
73266;SDS011;61495;53.400;7.608;2022-10-15T09:32:33;41.83;;;18.30;;
73266;SDS011;61495;53.400;7.608;2022-10-15T09:35:18;41.20;;;18.30;;
73266;SDS011;61495;53.400;7.608;2022-10-15T09:43:57;35.28;;;17.90;;
73266;SDS011;61495;53.400;7.608;2022-10-15T09:46:25;36.63;;;17.40;;
73266;SDS011;61495;53.400;7.608;2022-10-15T09:49:02;33.92;;;17.42;;
73266;SDS011;61495;53.400;7.608;2022-10-15T09:51:43;33.42;;;19.40;;
73266;SDS011;61495;53.400;7.608;2022-10-15T09:56:45;32.55;;;18.00;;
73266;SDS011;61495;53.400;7.608;2022-10-15T09:59:16;37.78;;;19.25;;
73266;SDS011;61495;53.400;7.608;2022-10-15T10:04:24;35.00;;;17.95;;
73266;SDS011;61495;53.400;7.608;2022-10-15T10:07:03;31.10;;;17.95;;
73266;SDS011;61495;53.400;7.608;2022-10-15T10:09:35;31.75;;;17.52;;
73266;SDS011;61495;53.400;7.608;2022-10-15T10:12:04;35.63;;;18.58;;
73266;SDS011;61495;53.400;7.608;2022-10-15T10:14:35;33.58;;;16.65;;
73266;SDS011;61495;53.400;7.608;2022-10-15T10:17:15;28.23;;;17.88;;
73266;SDS011;61495;53.400;7.608;2022-10-15T10:19:44;34.55;;;16.88;;
73266;SDS011;61495;53.400;7.608;2022-10-15T10:22:26;29.60;;;16.92;;
73266;SDS011;61495;53.400;7.608;2022-10-15T10:24:52;38.38;;;18.02;;
73266;SDS011;61495;53.400;7.608;2022-10-15T10:27:24;34.90;;;19.27;;
73266;SDS011;61495;53.400;7.608;2022-10-15T10:29:58;38.05;;;18.80;;
73266;SDS011;61495;53.400;7.608;2022-10-15T10:32:26;29.40;;;17.30;;
73266;SDS011;61495;53.400;7.608;2022-10-15T10:34:54;32.25;;;17.42;;
73266;SDS011;61495;53.400;7.608;2022-10-15T10:37:20;31.50;;;17.88;;
73266;SDS011;61495;53.400;7.608;2022-10-15T10:39:53;33.17;;;18.35;;
73266;SDS011;61495;53.400;7.608;2022-10-15T10:42:33;30.30;;;17.60;;
73266;SDS011;61495;53.400;7.608;2022-10-15T10:45:16;31.90;;;17.55;;
73266;SDS011;61495;53.400;7.608;2022-10-15T10:47:46;32.28;;;17.42;;
73266;SDS011;61495;53.400;7.608;2022-10-15T10:50:25;27.55;;;18.10;;
73266;SDS011;61495;53.400;7.608;2022-10-15T10:52:56;29.65;;;17.25;;
73266;SDS011;61495;53.400;7.608;2022-10-15T10:55:24;28.30;;;17.63;;
73266;SDS011;61495;53.400;7.608;2022-10-15T10:58:01;24.58;;;15.88;;
73266;SDS011;61495;53.400;7.608;2022-10-15T11:00:42;28.65;;;17.17;;
73266;SDS011;61495;53.400;7.608;2022-10-15T11:03:20;28.50;;;17.65;;
73266;SDS011;61495;53.400;7.608;2022-10-15T11:06:13;28.30;;;17.08;;
73266;SDS011;61495;53.400;7.608;2022-10-15T11:09:29;25.83;;;15.80;;
73266;SDS011;61495;53.400;7.608;2022-10-15T11:15:13;25.08;;;14.27;;
73266;SDS011;61495;53.400;7.608;2022-10-15T11:46:41;18.75;;;10.98;;
73266;SDS011;61495;53.400;7.608;2022-10-15T11:57:41;17.77;;;10.65;;
73266;SDS011;61495;53.400;7.608;2022-10-15T12:00:18;19.48;;;10.82;;
73266;SDS011;61495;53.400;7.608;2022-10-15T12:02:55;15.85;;;9.52;;
73266;SDS011;61495;53.400;7.608;2022-10-15T12:08:12;16.05;;;9.77;;
73266;SDS011;61495;53.400;7.608;2022-10-15T12:11:22;16.60;;;10.18;;
73266;SDS011;61495;53.400;7.608;2022-10-15T12:13:36;16.90;;;8.98;;
73266;SDS011;61495;53.400;7.608;2022-10-15T12:24:02;19.85;;;9.13;;
73266;SDS011;61495;53.400;7.608;2022-10-15T12:26:34;15.27;;;8.70;;
73266;SDS011;61495;53.400;7.608;2022-10-15T12:29:01;17.08;;;9.02;;
73266;SDS011;61495;53.400;7.608;2022-10-15T12:31:52;14.90;;;8.57;;
73266;SDS011;61495;53.400;7.608;2022-10-15T12:34:34;14.85;;;8.88;;
73266;SDS011;61495;53.400;7.608;2022-10-15T12:37:16;13.32;;;8.13;;
73266;SDS011;61495;53.400;7.608;2022-10-15T12:39:43;15.30;;;7.80;;
73266;SDS011;61495;53.400;7.608;2022-10-15T12:42:20;13.57;;;7.95;;
73266;SDS011;61495;53.400;7.608;2022-10-15T12:44:52;12.95;;;8.45;;
73266;SDS011;61495;53.400;7.608;2022-10-15T12:50:18;14.30;;;8.73;;
73266;SDS011;61495;53.400;7.608;2022-10-15T12:52:49;15.07;;;7.72;;
73266;SDS011;61495;53.400;7.608;2022-10-15T12:57:52;14.25;;;9.10;;
73266;SDS011;61495;53.400;7.608;2022-10-15T13:00:26;17.08;;;9.25;;
73266;SDS011;61495;53.400;7.608;2022-10-15T13:02:56;16.23;;;9.70;;
73266;SDS011;61495;53.400;7.608;2022-10-15T13:05:33;13.82;;;8.57;;
73266;SDS011;61495;53.400;7.608;2022-10-15T13:08:00;13.57;;;8.40;;
73266;SDS011;61495;53.400;7.608;2022-10-15T13:10:28;14.82;;;9.00;;
73266;SDS011;61495;53.400;7.608;2022-10-15T13:12:59;13.77;;;7.78;;
73266;SDS011;61495;53.400;7.608;2022-10-15T13:15:28;12.88;;;7.07;;
73266;SDS011;61495;53.400;7.608;2022-10-15T13:17:55;14.30;;;7.93;;
73266;SDS011;61495;53.400;7.608;2022-10-15T13:20:28;14.23;;;8.07;;
73266;SDS011;61495;53.400;7.608;2022-10-15T13:23:18;13.27;;;8.02;;
73266;SDS011;61495;53.400;7.608;2022-10-15T13:25:53;13.82;;;7.80;;
73266;SDS011;61495;53.400;7.608;2022-10-15T13:28:41;13.70;;;8.43;;
73266;SDS011;61495;53.400;7.608;2022-10-15T13:33:42;14.93;;;9.88;;
73266;SDS011;61495;53.400;7.608;2022-10-15T13:36:20;13.13;;;8.50;;
73266;SDS011;61495;53.400;7.608;2022-10-15T13:38:54;15.10;;;9.40;;
73266;SDS011;61495;53.400;7.608;2022-10-15T13:41:28;16.08;;;9.57;;
73266;SDS011;61495;53.400;7.608;2022-10-15T13:43:58;12.82;;;8.20;;
73266;SDS011;61495;53.400;7.608;2022-10-15T13:46:29;17.05;;;9.85;;
73266;SDS011;61495;53.400;7.608;2022-10-15T13:48:57;16.75;;;9.98;;
73266;SDS011;61495;53.400;7.608;2022-10-15T13:51:26;15.00;;;9.25;;
73266;SDS011;61495;53.400;7.608;2022-10-15T13:53:57;15.95;;;9.18;;
73266;SDS011;61495;53.400;7.608;2022-10-15T13:56:27;17.02;;;10.65;;
73266;SDS011;61495;53.400;7.608;2022-10-15T13:58:58;17.95;;;10.40;;
73266;SDS011;61495;53.400;7.608;2022-10-15T14:01:26;17.73;;;10.70;;
73266;SDS011;61495;53.400;7.608;2022-10-15T14:03:54;19.40;;;11.85;;
73266;SDS011;61495;53.400;7.608;2022-10-15T14:06:32;17.63;;;11.82;;
73266;SDS011;61495;53.400;7.608;2022-10-15T14:11:43;21.67;;;13.13;;
73266;SDS011;61495;53.400;7.608;2022-10-15T14:17:12;21.95;;;12.70;;
73266;SDS011;61495;53.400;7.608;2022-10-15T14:19:54;20.42;;;12.43;;
73266;SDS011;61495;53.400;7.608;2022-10-15T14:22:25;20.45;;;12.23;;
73266;SDS011;61495;53.400;7.608;2022-10-15T14:24:52;21.20;;;13.43;;
73266;SDS011;61495;53.400;7.608;2022-10-15T14:27:27;19.90;;;11.90;;
73266;SDS011;61495;53.400;7.608;2022-10-15T14:29:57;21.20;;;13.07;;
73266;SDS011;61495;53.400;7.608;2022-10-15T14:32:28;20.13;;;13.07;;
73266;SDS011;61495;53.400;7.608;2022-10-15T14:34:58;23.65;;;13.55;;
73266;SDS011;61495;53.400;7.608;2022-10-15T14:42:40;21.65;;;12.57;;
73266;SDS011;61495;53.400;7.608;2022-10-15T14:47:50;23.92;;;14.57;;
73266;SDS011;61495;53.400;7.608;2022-10-15T14:50:18;23.75;;;13.43;;
73266;SDS011;61495;53.400;7.608;2022-10-15T14:52:49;26.33;;;16.05;;
73266;SDS011;61495;53.400;7.608;2022-10-15T14:58:01;26.10;;;14.82;;
73266;SDS011;61495;53.400;7.608;2022-10-15T15:00:33;24.85;;;14.43;;
73266;SDS011;61495;53.400;7.608;2022-10-15T15:03:12;26.67;;;14.20;;
73266;SDS011;61495;53.400;7.608;2022-10-15T15:05:44;23.50;;;13.75;;
73266;SDS011;61495;53.400;7.608;2022-10-15T15:08:16;23.58;;;13.15;;
73266;SDS011;61495;53.400;7.608;2022-10-15T15:10:43;24.48;;;14.77;;
73266;SDS011;61495;53.400;7.608;2022-10-15T15:13:10;23.67;;;15.35;;
73266;SDS011;61495;53.400;7.608;2022-10-15T15:15:40;20.73;;;12.63;;
73266;SDS011;61495;53.400;7.608;2022-10-15T15:18:07;20.63;;;13.85;;
73266;SDS011;61495;53.400;7.608;2022-10-15T15:20:38;22.55;;;13.00;;
73266;SDS011;61495;53.400;7.608;2022-10-15T15:23:04;21.85;;;14.00;;
73266;SDS011;61495;53.400;7.608;2022-10-15T15:25:32;23.48;;;12.80;;
73266;SDS011;61495;53.400;7.608;2022-10-15T15:28:01;19.38;;;13.65;;
73266;SDS011;61495;53.400;7.608;2022-10-15T15:30:27;20.58;;;13.05;;
73266;SDS011;61495;53.400;7.608;2022-10-15T15:32:55;20.27;;;14.55;;
73266;SDS011;61495;53.400;7.608;2022-10-15T15:37:53;21.15;;;14.38;;
73266;SDS011;61495;53.400;7.608;2022-10-15T15:40:18;19.85;;;13.77;;
73266;SDS011;61495;53.400;7.608;2022-10-15T15:42:44;16.60;;;11.68;;
73266;SDS011;61495;53.400;7.608;2022-10-15T15:45:23;16.95;;;11.85;;
73266;SDS011;61495;53.400;7.608;2022-10-15T15:47:51;19.30;;;12.80;;
73266;SDS011;61495;53.400;7.608;2022-10-15T15:50:17;20.42;;;13.10;;
73266;SDS011;61495;53.400;7.608;2022-10-15T15:52:44;16.00;;;11.18;;
73266;SDS011;61495;53.400;7.608;2022-10-15T15:55:10;20.10;;;13.77;;
73266;SDS011;61495;53.400;7.608;2022-10-15T15:57:35;19.50;;;12.77;;
73266;SDS011;61495;53.400;7.608;2022-10-15T16:00:01;18.13;;;11.52;;
73266;SDS011;61495;53.400;7.608;2022-10-15T16:02:28;17.90;;;12.73;;
73266;SDS011;61495;53.400;7.608;2022-10-15T16:04:54;18.30;;;11.68;;
73266;SDS011;61495;53.400;7.608;2022-10-15T16:07:20;16.42;;;10.30;;
73266;SDS011;61495;53.400;7.608;2022-10-15T16:09:45;15.35;;;10.23;;
73266;SDS011;61495;53.400;7.608;2022-10-15T16:12:11;15.98;;;11.60;;
73266;SDS011;61495;53.400;7.608;2022-10-15T16:14:36;14.43;;;9.88;;
73266;SDS011;61495;53.400;7.608;2022-10-15T16:17:02;17.65;;;11.20;;
73266;SDS011;61495;53.400;7.608;2022-10-15T16:19:28;14.90;;;9.98;;
73266;SDS011;61495;53.400;7.608;2022-10-15T16:21:54;11.70;;;8.73;;
73266;SDS011;61495;53.400;7.608;2022-10-15T16:24:19;12.63;;;8.07;;
73266;SDS011;61495;53.400;7.608;2022-10-15T16:26:45;15.32;;;9.55;;
73266;SDS011;61495;53.400;7.608;2022-10-15T16:29:10;13.43;;;7.90;;
73266;SDS011;61495;53.400;7.608;2022-10-15T16:31:36;11.30;;;8.23;;
73266;SDS011;61495;53.400;7.608;2022-10-15T16:34:02;9.23;;;7.32;;
73266;SDS011;61495;53.400;7.608;2022-10-15T16:36:29;11.40;;;7.90;;
73266;SDS011;61495;53.400;7.608;2022-10-15T16:38:55;14.13;;;8.85;;